sensor_id;sensor_type;location;lat;lon;timestamp;P1;durP1;ratioP1;P2;durP2;ratioP2
3299;SDS011;1662;49.310;8.134;2023-04-25T00:01:14;4.40;;;4.10;;
3299;SDS011;1662;49.310;8.134;2023-04-25T00:03:40;4.43;;;4.13;;
3299;SDS011;1662;49.310;8.134;2023-04-25T00:06:06;3.90;;;3.60;;
3299;SDS011;1662;49.310;8.134;2023-04-25T00:08:31;5.20;;;4.80;;
3299;SDS011;1662;49.310;8.134;2023-04-25T00:10:57;6.33;;;5.70;;
3299;SDS011;1662;49.310;8.134;2023-04-25T00:13:23;4.10;;;3.87;;
3299;SDS011;1662;49.310;8.134;2023-04-25T00:15:50;5.13;;;4.73;;
3299;SDS011;1662;49.310;8.134;2023-04-25T00:18:18;5.50;;;5.00;;
3299;SDS011;1662;49.310;8.134;2023-04-25T00:20:44;6.07;;;5.57;;
3299;SDS011;1662;49.310;8.134;2023-04-25T00:23:15;6.20;;;5.70;;
3299;SDS011;1662;49.310;8.134;2023-04-25T00:25:46;5.87;;;5.40;;
3299;SDS011;1662;49.310;8.134;2023-04-25T00:28:13;5.20;;;4.80;;
3299;SDS011;1662;49.310;8.134;2023-04-25T00:30:39;6.07;;;5.07;;
3299;SDS011;1662;49.310;8.134;2023-04-25T00:33:05;5.40;;;4.80;;
3299;SDS011;1662;49.310;8.134;2023-04-25T00:35:30;5.40;;;5.00;;
3299;SDS011;1662;49.310;8.134;2023-04-25T00:37:56;5.67;;;5.17;;
3299;SDS011;1662;49.310;8.134;2023-04-25T00:40:22;5.90;;;5.40;;
3299;SDS011;1662;49.310;8.134;2023-04-25T00:42:47;6.73;;;5.40;;
3299;SDS011;1662;49.310;8.134;2023-04-25T00:45:16;6.00;;;5.50;;
3299;SDS011;1662;49.310;8.134;2023-04-25T00:47:42;5.27;;;4.87;;
3299;SDS011;1662;49.310;8.134;2023-04-25T00:50:09;7.70;;;5.37;;
3299;SDS011;1662;49.310;8.134;2023-04-25T00:52:35;6.10;;;5.50;;
3299;SDS011;1662;49.310;8.134;2023-04-25T00:55:03;5.50;;;4.90;;
3299;SDS011;1662;49.310;8.134;2023-04-25T00:57:29;5.47;;;4.97;;
3299;SDS011;1662;49.310;8.134;2023-04-25T00:59:55;5.20;;;4.80;;
3299;SDS011;1662;49.310;8.134;2023-04-25T01:02:21;4.80;;;4.50;;
3299;SDS011;1662;49.310;8.134;2023-04-25T01:04:47;6.17;;;4.90;;
3299;SDS011;1662;49.310;8.134;2023-04-25T01:07:13;6.30;;;5.30;;
3299;SDS011;1662;49.310;8.134;2023-04-25T01:09:40;5.50;;;5.00;;
3299;SDS011;1662;49.310;8.134;2023-04-25T01:12:06;6.03;;;5.53;;
3299;SDS011;1662;49.310;8.134;2023-04-25T01:14:31;5.33;;;4.97;;
3299;SDS011;1662;49.310;8.134;2023-04-25T01:16:57;6.13;;;5.10;;
3299;SDS011;1662;49.310;8.134;2023-04-25T01:19:23;4.97;;;4.43;;
3299;SDS011;1662;49.310;8.134;2023-04-25T01:21:49;6.77;;;5.60;;
3299;SDS011;1662;49.310;8.134;2023-04-25T01:24:15;5.33;;;4.93;;
3299;SDS011;1662;49.310;8.134;2023-04-25T01:26:42;5.37;;;4.93;;
3299;SDS011;1662;49.310;8.134;2023-04-25T01:29:15;5.70;;;5.20;;
3299;SDS011;1662;49.310;8.134;2023-04-25T01:31:45;5.70;;;5.30;;
3299;SDS011;1662;49.310;8.134;2023-04-25T01:34:11;5.50;;;5.00;;
3299;SDS011;1662;49.310;8.134;2023-04-25T01:36:37;4.97;;;4.50;;
3299;SDS011;1662;49.310;8.134;2023-04-25T01:39:03;5.10;;;4.70;;
3299;SDS011;1662;49.310;8.134;2023-04-25T01:41:29;5.60;;;5.07;;
3299;SDS011;1662;49.310;8.134;2023-04-25T01:43:55;4.83;;;4.53;;
3299;SDS011;1662;49.310;8.134;2023-04-25T01:46:21;6.40;;;4.63;;
3299;SDS011;1662;49.310;8.134;2023-04-25T01:48:46;4.93;;;4.53;;
3299;SDS011;1662;49.310;8.134;2023-04-25T01:51:12;5.27;;;4.97;;
3299;SDS011;1662;49.310;8.134;2023-04-25T01:53:38;4.63;;;4.33;;
3299;SDS011;1662;49.310;8.134;2023-04-25T01:56:05;4.47;;;4.17;;
3299;SDS011;1662;49.310;8.134;2023-04-25T01:58:30;4.53;;;4.23;;
3299;SDS011;1662;49.310;8.134;2023-04-25T02:00:56;4.50;;;4.20;;
3299;SDS011;1662;49.310;8.134;2023-04-25T02:03:24;4.60;;;4.30;;
3299;SDS011;1662;49.310;8.134;2023-04-25T02:05:50;4.60;;;4.30;;
3299;SDS011;1662;49.310;8.134;2023-04-25T02:08:16;4.63;;;4.20;;
3299;SDS011;1662;49.310;8.134;2023-04-25T02:10:43;3.93;;;3.73;;
3299;SDS011;1662;49.310;8.134;2023-04-25T02:13:09;4.83;;;3.77;;
3299;SDS011;1662;49.310;8.134;2023-04-25T02:15:34;3.90;;;3.70;;
3299;SDS011;1662;49.310;8.134;2023-04-25T02:18:00;5.10;;;4.80;;
3299;SDS011;1662;49.310;8.134;2023-04-25T02:20:26;4.00;;;3.70;;
3299;SDS011;1662;49.310;8.134;2023-04-25T02:22:52;3.43;;;3.23;;
3299;SDS011;1662;49.310;8.134;2023-04-25T02:25:18;3.87;;;3.57;;
3299;SDS011;1662;49.310;8.134;2023-04-25T02:27:45;3.33;;;3.23;;
3299;SDS011;1662;49.310;8.134;2023-04-25T02:30:11;3.60;;;3.40;;
3299;SDS011;1662;49.310;8.134;2023-04-25T02:32:37;4.07;;;3.77;;
3299;SDS011;1662;49.310;8.134;2023-04-25T02:35:03;4.40;;;4.10;;
3299;SDS011;1662;49.310;8.134;2023-04-25T02:37:30;3.67;;;3.47;;
3299;SDS011;1662;49.310;8.134;2023-04-25T02:39:56;3.80;;;3.60;;
3299;SDS011;1662;49.310;8.134;2023-04-25T02:42:22;4.30;;;4.10;;
3299;SDS011;1662;49.310;8.134;2023-04-25T02:44:47;4.13;;;3.93;;
3299;SDS011;1662;49.310;8.134;2023-04-25T02:47:13;4.40;;;4.10;;
3299;SDS011;1662;49.310;8.134;2023-04-25T02:49:39;3.83;;;3.53;;
3299;SDS011;1662;49.310;8.134;2023-04-25T02:52:05;4.33;;;4.00;;
3299;SDS011;1662;49.310;8.134;2023-04-25T02:54:31;5.40;;;5.00;;
3299;SDS011;1662;49.310;8.134;2023-04-25T02:56:56;4.97;;;4.63;;
3299;SDS011;1662;49.310;8.134;2023-04-25T02:59:22;5.13;;;4.77;;
3299;SDS011;1662;49.310;8.134;2023-04-25T03:01:47;4.93;;;4.53;;
3299;SDS011;1662;49.310;8.134;2023-04-25T03:04:13;4.70;;;4.33;;
3299;SDS011;1662;49.310;8.134;2023-04-25T03:06:39;5.27;;;4.87;;
3299;SDS011;1662;49.310;8.134;2023-04-25T03:09:04;4.70;;;4.30;;
3299;SDS011;1662;49.310;8.134;2023-04-25T03:11:32;4.70;;;4.33;;
3299;SDS011;1662;49.310;8.134;2023-04-25T03:13:58;5.70;;;4.70;;
3299;SDS011;1662;49.310;8.134;2023-04-25T03:16:24;5.07;;;4.63;;
3299;SDS011;1662;49.310;8.134;2023-04-25T03:18:50;4.60;;;4.27;;
3299;SDS011;1662;49.310;8.134;2023-04-25T03:21:16;5.87;;;5.37;;
3299;SDS011;1662;49.310;8.134;2023-04-25T03:23:41;6.33;;;5.60;;
3299;SDS011;1662;49.310;8.134;2023-04-25T03:26:08;4.77;;;4.47;;
3299;SDS011;1662;49.310;8.134;2023-04-25T03:28:36;5.27;;;4.87;;
3299;SDS011;1662;49.310;8.134;2023-04-25T03:31:01;4.27;;;4.07;;
3299;SDS011;1662;49.310;8.134;2023-04-25T03:33:27;4.43;;;4.13;;
3299;SDS011;1662;49.310;8.134;2023-04-25T03:35:52;5.37;;;4.97;;
3299;SDS011;1662;49.310;8.134;2023-04-25T03:38:20;5.33;;;4.93;;
3299;SDS011;1662;49.310;8.134;2023-04-25T03:40:46;5.03;;;4.63;;
3299;SDS011;1662;49.310;8.134;2023-04-25T03:43:11;5.20;;;4.80;;
3299;SDS011;1662;49.310;8.134;2023-04-25T03:45:37;5.80;;;5.30;;
3299;SDS011;1662;49.310;8.134;2023-04-25T03:48:05;4.63;;;4.33;;
3299;SDS011;1662;49.310;8.134;2023-04-25T03:50:30;5.43;;;4.93;;
3299;SDS011;1662;49.310;8.134;2023-04-25T03:52:56;5.10;;;4.53;;
3299;SDS011;1662;49.310;8.134;2023-04-25T03:55:21;5.07;;;4.77;;
3299;SDS011;1662;49.310;8.134;2023-04-25T03:57:47;4.40;;;4.10;;
3299;SDS011;1662;49.310;8.134;2023-04-25T04:00:13;5.17;;;4.83;;
3299;SDS011;1662;49.310;8.134;2023-04-25T04:02:39;4.50;;;4.20;;
3299;SDS011;1662;49.310;8.134;2023-04-25T04:05:04;4.97;;;4.57;;
3299;SDS011;1662;49.310;8.134;2023-04-25T04:07:30;5.50;;;4.60;;
3299;SDS011;1662;49.310;8.134;2023-04-25T04:09:58;4.37;;;4.07;;
3299;SDS011;1662;49.310;8.134;2023-04-25T04:12:23;5.20;;;4.70;;
3299;SDS011;1662;49.310;8.134;2023-04-25T04:14:49;5.43;;;5.03;;
3299;SDS011;1662;49.310;8.134;2023-04-25T04:17:15;4.80;;;4.50;;
3299;SDS011;1662;49.310;8.134;2023-04-25T04:19:41;4.83;;;4.43;;
3299;SDS011;1662;49.310;8.134;2023-04-25T04:22:06;5.00;;;4.60;;
3299;SDS011;1662;49.310;8.134;2023-04-25T04:24:34;5.10;;;4.67;;
3299;SDS011;1662;49.310;8.134;2023-04-25T04:27:00;5.87;;;5.47;;
3299;SDS011;1662;49.310;8.134;2023-04-25T04:29:26;8.10;;;6.10;;
3299;SDS011;1662;49.310;8.134;2023-04-25T04:31:52;6.00;;;5.60;;
3299;SDS011;1662;49.310;8.134;2023-04-25T04:34:17;7.60;;;6.90;;
3299;SDS011;1662;49.310;8.134;2023-04-25T04:36:43;8.27;;;6.13;;
3299;SDS011;1662;49.310;8.134;2023-04-25T04:39:12;6.07;;;5.57;;
3299;SDS011;1662;49.310;8.134;2023-04-25T04:41:38;5.97;;;5.37;;
3299;SDS011;1662;49.310;8.134;2023-04-25T04:44:05;6.57;;;5.97;;
3299;SDS011;1662;49.310;8.134;2023-04-25T04:46:31;7.30;;;6.70;;
3299;SDS011;1662;49.310;8.134;2023-04-25T04:49:02;6.13;;;5.63;;
3299;SDS011;1662;49.310;8.134;2023-04-25T04:51:30;5.67;;;5.27;;
3299;SDS011;1662;49.310;8.134;2023-04-25T04:53:59;6.83;;;6.23;;
3299;SDS011;1662;49.310;8.134;2023-04-25T04:56:27;6.10;;;5.60;;
3299;SDS011;1662;49.310;8.134;2023-04-25T04:58:58;7.07;;;6.47;;
3299;SDS011;1662;49.310;8.134;2023-04-25T05:01:25;6.93;;;6.33;;
3299;SDS011;1662;49.310;8.134;2023-04-25T05:03:51;7.97;;;7.27;;
3299;SDS011;1662;49.310;8.134;2023-04-25T05:06:18;8.13;;;6.03;;
3299;SDS011;1662;49.310;8.134;2023-04-25T05:08:44;6.80;;;6.20;;
3299;SDS011;1662;49.310;8.134;2023-04-25T05:11:10;6.87;;;6.23;;
3299;SDS011;1662;49.310;8.134;2023-04-25T05:13:38;6.10;;;5.60;;
3299;SDS011;1662;49.310;8.134;2023-04-25T05:16:03;7.73;;;5.93;;
3299;SDS011;1662;49.310;8.134;2023-04-25T05:18:31;7.10;;;6.40;;
3299;SDS011;1662;49.310;8.134;2023-04-25T05:20:59;7.50;;;6.40;;
3299;SDS011;1662;49.310;8.134;2023-04-25T05:23:27;7.30;;;6.60;;
3299;SDS011;1662;49.310;8.134;2023-04-25T05:25:55;7.00;;;6.40;;
3299;SDS011;1662;49.310;8.134;2023-04-25T05:28:21;7.93;;;7.13;;
3299;SDS011;1662;49.310;8.134;2023-04-25T05:30:47;4.83;;;4.53;;
3299;SDS011;1662;49.310;8.134;2023-04-25T05:33:12;7.10;;;6.40;;
3299;SDS011;1662;49.310;8.134;2023-04-25T05:35:38;7.40;;;6.70;;
3299;SDS011;1662;49.310;8.134;2023-04-25T05:38:04;8.43;;;7.73;;
3299;SDS011;1662;49.310;8.134;2023-04-25T05:40:29;7.03;;;6.43;;
3299;SDS011;1662;49.310;8.134;2023-04-25T05:42:55;7.93;;;7.13;;
3299;SDS011;1662;49.310;8.134;2023-04-25T05:45:20;7.10;;;6.50;;
3299;SDS011;1662;49.310;8.134;2023-04-25T05:47:46;8.57;;;7.10;;
3299;SDS011;1662;49.310;8.134;2023-04-25T05:50:12;7.77;;;7.07;;
3299;SDS011;1662;49.310;8.134;2023-04-25T05:52:37;7.77;;;7.07;;
3299;SDS011;1662;49.310;8.134;2023-04-25T05:55:06;7.60;;;6.90;;
3299;SDS011;1662;49.310;8.134;2023-04-25T05:57:32;8.03;;;7.23;;
3299;SDS011;1662;49.310;8.134;2023-04-25T05:59:58;9.00;;;7.83;;
3299;SDS011;1662;49.310;8.134;2023-04-25T06:02:23;8.43;;;7.67;;
3299;SDS011;1662;49.310;8.134;2023-04-25T06:04:49;10.57;;;8.43;;
3299;SDS011;1662;49.310;8.134;2023-04-25T06:07:15;9.10;;;7.50;;
3299;SDS011;1662;49.310;8.134;2023-04-25T06:09:41;8.63;;;7.73;;
3299;SDS011;1662;49.310;8.134;2023-04-25T06:12:08;8.07;;;7.27;;
3299;SDS011;1662;49.310;8.134;2023-04-25T06:14:33;7.90;;;7.27;;
3299;SDS011;1662;49.310;8.134;2023-04-25T06:16:59;10.80;;;8.87;;
3299;SDS011;1662;49.310;8.134;2023-04-25T06:19:31;9.23;;;8.33;;
3299;SDS011;1662;49.310;8.134;2023-04-25T06:22:00;8.80;;;7.90;;
3299;SDS011;1662;49.310;8.134;2023-04-25T06:24:27;8.33;;;7.57;;
3299;SDS011;1662;49.310;8.134;2023-04-25T06:26:52;8.93;;;7.43;;
3299;SDS011;1662;49.310;8.134;2023-04-25T06:29:20;9.67;;;8.27;;
3299;SDS011;1662;49.310;8.134;2023-04-25T06:31:46;9.00;;;8.10;;
3299;SDS011;1662;49.310;8.134;2023-04-25T06:34:12;8.50;;;7.70;;
3299;SDS011;1662;49.310;8.134;2023-04-25T06:36:37;10.20;;;9.00;;
3299;SDS011;1662;49.310;8.134;2023-04-25T06:39:03;9.50;;;8.37;;
3299;SDS011;1662;49.310;8.134;2023-04-25T06:41:28;9.57;;;8.27;;
3299;SDS011;1662;49.310;8.134;2023-04-25T06:43:54;11.90;;;9.23;;
3299;SDS011;1662;49.310;8.134;2023-04-25T06:46:20;6.07;;;5.50;;
3299;SDS011;1662;49.310;8.134;2023-04-25T06:48:45;9.83;;;8.40;;
3299;SDS011;1662;49.310;8.134;2023-04-25T06:51:11;8.53;;;7.73;;
3299;SDS011;1662;49.310;8.134;2023-04-25T06:53:39;9.23;;;8.30;;
3299;SDS011;1662;49.310;8.134;2023-04-25T06:56:05;9.70;;;8.70;;
3299;SDS011;1662;49.310;8.134;2023-04-25T06:58:31;8.77;;;7.77;;
3299;SDS011;1662;49.310;8.134;2023-04-25T07:00:56;8.53;;;7.83;;
3299;SDS011;1662;49.310;8.134;2023-04-25T07:03:22;9.23;;;7.77;;
3299;SDS011;1662;49.310;8.134;2023-04-25T07:05:48;9.33;;;8.37;;
3299;SDS011;1662;49.310;8.134;2023-04-25T07:08:15;9.30;;;8.50;;
3299;SDS011;1662;49.310;8.134;2023-04-25T07:10:40;8.83;;;7.87;;
3299;SDS011;1662;49.310;8.134;2023-04-25T07:13:06;8.30;;;7.50;;
3299;SDS011;1662;49.310;8.134;2023-04-25T07:15:32;8.90;;;7.97;;
3299;SDS011;1662;49.310;8.134;2023-04-25T07:17:57;9.47;;;8.57;;
3299;SDS011;1662;49.310;8.134;2023-04-25T07:20:23;9.10;;;8.17;;
3299;SDS011;1662;49.310;8.134;2023-04-25T07:22:49;9.33;;;8.27;;
3299;SDS011;1662;49.310;8.134;2023-04-25T07:25:15;10.97;;;9.30;;
3299;SDS011;1662;49.310;8.134;2023-04-25T07:27:41;9.63;;;8.63;;
3299;SDS011;1662;49.310;8.134;2023-04-25T07:30:07;9.23;;;8.33;;
3299;SDS011;1662;49.310;8.134;2023-04-25T07:32:35;9.53;;;7.23;;
3299;SDS011;1662;49.310;8.134;2023-04-25T07:35:03;8.07;;;7.30;;
3299;SDS011;1662;49.310;8.134;2023-04-25T07:37:29;8.90;;;8.00;;
3299;SDS011;1662;49.310;8.134;2023-04-25T07:39:55;10.77;;;8.33;;
3299;SDS011;1662;49.310;8.134;2023-04-25T07:42:22;8.53;;;7.80;;
3299;SDS011;1662;49.310;8.134;2023-04-25T07:44:48;7.03;;;6.40;;
3299;SDS011;1662;49.310;8.134;2023-04-25T07:47:14;10.00;;;7.20;;
3299;SDS011;1662;49.310;8.134;2023-04-25T07:49:39;8.23;;;7.43;;
3299;SDS011;1662;49.310;8.134;2023-04-25T07:52:05;6.53;;;5.43;;
3299;SDS011;1662;49.310;8.134;2023-04-25T07:54:31;14.03;;;6.40;;
3299;SDS011;1662;49.310;8.134;2023-04-25T07:56:57;7.10;;;6.30;;
3299;SDS011;1662;49.310;8.134;2023-04-25T07:59:24;9.93;;;6.50;;
3299;SDS011;1662;49.310;8.134;2023-04-25T08:01:50;10.87;;;7.17;;
3299;SDS011;1662;49.310;8.134;2023-04-25T08:04:16;11.37;;;5.90;;
3299;SDS011;1662;49.310;8.134;2023-04-25T08:06:42;9.67;;;6.60;;
3299;SDS011;1662;49.310;8.134;2023-04-25T08:09:08;8.40;;;6.77;;
3299;SDS011;1662;49.310;8.134;2023-04-25T08:11:34;9.30;;;6.60;;
3299;SDS011;1662;49.310;8.134;2023-04-25T08:14:01;7.83;;;6.43;;
3299;SDS011;1662;49.310;8.134;2023-04-25T08:16:27;8.03;;;6.80;;
3299;SDS011;1662;49.310;8.134;2023-04-25T08:18:52;10.10;;;5.83;;
3299;SDS011;1662;49.310;8.134;2023-04-25T08:21:18;6.90;;;5.87;;
3299;SDS011;1662;49.310;8.134;2023-04-25T08:23:44;6.47;;;5.87;;
3299;SDS011;1662;49.310;8.134;2023-04-25T08:26:10;6.97;;;6.10;;
3299;SDS011;1662;49.310;8.134;2023-04-25T08:28:35;10.00;;;6.23;;
3299;SDS011;1662;49.310;8.134;2023-04-25T08:31:01;6.57;;;5.97;;
3299;SDS011;1662;49.310;8.134;2023-04-25T08:33:27;6.40;;;5.77;;
3299;SDS011;1662;49.310;8.134;2023-04-25T08:35:53;10.97;;;6.53;;
3299;SDS011;1662;49.310;8.134;2023-04-25T08:38:19;6.90;;;6.20;;
3299;SDS011;1662;49.310;8.134;2023-04-25T08:40:44;7.10;;;5.77;;
3299;SDS011;1662;49.310;8.134;2023-04-25T08:43:15;8.87;;;7.10;;
3299;SDS011;1662;49.310;8.134;2023-04-25T08:45:44;7.70;;;6.57;;
3299;SDS011;1662;49.310;8.134;2023-04-25T08:48:11;10.93;;;7.77;;
3299;SDS011;1662;49.310;8.134;2023-04-25T08:50:39;8.77;;;7.17;;
3299;SDS011;1662;49.310;8.134;2023-04-25T08:53:22;11.80;;;7.43;;
3299;SDS011;1662;49.310;8.134;2023-04-25T08:55:52;11.27;;;7.90;;
3299;SDS011;1662;49.310;8.134;2023-04-25T08:58:19;8.07;;;7.20;;
3299;SDS011;1662;49.310;8.134;2023-04-25T09:00:46;13.70;;;7.37;;
3299;SDS011;1662;49.310;8.134;2023-04-25T09:03:13;7.87;;;6.53;;
3299;SDS011;1662;49.310;8.134;2023-04-25T09:05:40;8.60;;;6.70;;
3299;SDS011;1662;49.310;8.134;2023-04-25T09:08:06;11.90;;;8.93;;
3299;SDS011;1662;49.310;8.134;2023-04-25T09:10:32;9.20;;;7.00;;
3299;SDS011;1662;49.310;8.134;2023-04-25T09:13:05;9.80;;;7.40;;
3299;SDS011;1662;49.310;8.134;2023-04-25T09:15:34;10.17;;;6.83;;
3299;SDS011;1662;49.310;8.134;2023-04-25T09:18:22;10.47;;;7.07;;
3299;SDS011;1662;49.310;8.134;2023-04-25T09:20:48;7.50;;;6.80;;
3299;SDS011;1662;49.310;8.134;2023-04-25T09:23:13;13.33;;;7.93;;
3299;SDS011;1662;49.310;8.134;2023-04-25T09:25:40;14.70;;;9.67;;
3299;SDS011;1662;49.310;8.134;2023-04-25T09:28:07;16.37;;;9.57;;
3299;SDS011;1662;49.310;8.134;2023-04-25T09:30:33;18.13;;;9.20;;
3299;SDS011;1662;49.310;8.134;2023-04-25T09:33:03;18.80;;;10.73;;
3299;SDS011;1662;49.310;8.134;2023-04-25T09:35:40;11.20;;;9.33;;
3299;SDS011;1662;49.310;8.134;2023-04-25T09:38:08;16.67;;;9.70;;
3299;SDS011;1662;49.310;8.134;2023-04-25T09:40:46;12.47;;;9.97;;
3299;SDS011;1662;49.310;8.134;2023-04-25T09:43:21;13.67;;;9.90;;
3299;SDS011;1662;49.310;8.134;2023-04-25T09:45:47;9.40;;;8.37;;
3299;SDS011;1662;49.310;8.134;2023-04-25T09:48:22;15.23;;;9.53;;
3299;SDS011;1662;49.310;8.134;2023-04-25T09:53:34;11.97;;;10.77;;
3299;SDS011;1662;49.310;8.134;2023-04-25T09:56:03;11.80;;;9.70;;
3299;SDS011;1662;49.310;8.134;2023-04-25T09:58:30;13.83;;;9.53;;
3299;SDS011;1662;49.310;8.134;2023-04-25T10:01:00;13.73;;;9.47;;
3299;SDS011;1662;49.310;8.134;2023-04-25T10:03:29;19.47;;;11.03;;
3299;SDS011;1662;49.310;8.134;2023-04-25T10:05:56;11.23;;;9.57;;
3299;SDS011;1662;49.310;8.134;2023-04-25T10:08:24;11.43;;;8.80;;
3299;SDS011;1662;49.310;8.134;2023-04-25T10:10:53;12.23;;;9.80;;
3299;SDS011;1662;49.310;8.134;2023-04-25T10:13:18;8.93;;;7.60;;
3299;SDS011;1662;49.310;8.134;2023-04-25T10:15:44;10.30;;;7.43;;
3299;SDS011;1662;49.310;8.134;2023-04-25T10:18:11;8.10;;;7.30;;
3299;SDS011;1662;49.310;8.134;2023-04-25T10:20:37;10.80;;;7.23;;
3299;SDS011;1662;49.310;8.134;2023-04-25T10:23:13;9.23;;;7.80;;
3299;SDS011;1662;49.310;8.134;2023-04-25T10:25:40;9.27;;;7.73;;
3299;SDS011;1662;49.310;8.134;2023-04-25T10:28:06;8.93;;;7.03;;
3299;SDS011;1662;49.310;8.134;2023-04-25T10:30:32;8.80;;;7.90;;
3299;SDS011;1662;49.310;8.134;2023-04-25T10:32:58;9.00;;;8.23;;
3299;SDS011;1662;49.310;8.134;2023-04-25T10:37:58;8.73;;;7.93;;
3299;SDS011;1662;49.310;8.134;2023-04-25T10:40:23;8.43;;;7.60;;
3299;SDS011;1662;49.310;8.134;2023-04-25T10:42:51;7.73;;;7.00;;
3299;SDS011;1662;49.310;8.134;2023-04-25T10:45:18;9.43;;;6.93;;
3299;SDS011;1662;49.310;8.134;2023-04-25T10:47:45;8.87;;;8.03;;
3299;SDS011;1662;49.310;8.134;2023-04-25T10:50:11;11.17;;;6.97;;
3299;SDS011;1662;49.310;8.134;2023-04-25T10:52:39;6.80;;;6.17;;
3299;SDS011;1662;49.310;8.134;2023-04-25T10:55:10;7.97;;;7.20;;
3299;SDS011;1662;49.310;8.134;2023-04-25T10:57:36;8.10;;;7.30;;
3299;SDS011;1662;49.310;8.134;2023-04-25T11:00:13;7.07;;;6.47;;
3299;SDS011;1662;49.310;8.134;2023-04-25T11:02:44;7.60;;;6.70;;
3299;SDS011;1662;49.310;8.134;2023-04-25T11:05:15;8.23;;;5.60;;
3299;SDS011;1662;49.310;8.134;2023-04-25T11:07:53;6.60;;;5.90;;
3299;SDS011;1662;49.310;8.134;2023-04-25T11:10:29;6.87;;;6.17;;
3299;SDS011;1662;49.310;8.134;2023-04-25T11:12:56;6.53;;;5.93;;
3299;SDS011;1662;49.310;8.134;2023-04-25T11:15:22;6.20;;;5.60;;
3299;SDS011;1662;49.310;8.134;2023-04-25T11:17:50;8.23;;;6.30;;
3299;SDS011;1662;49.310;8.134;2023-04-25T11:20:16;7.10;;;6.50;;
3299;SDS011;1662;49.310;8.134;2023-04-25T11:22:43;7.60;;;6.80;;
3299;SDS011;1662;49.310;8.134;2023-04-25T11:25:10;9.10;;;6.00;;
3299;SDS011;1662;49.310;8.134;2023-04-25T11:27:38;7.00;;;6.07;;
3299;SDS011;1662;49.310;8.134;2023-04-25T11:30:14;7.67;;;6.07;;
3299;SDS011;1662;49.310;8.134;2023-04-25T11:32:41;6.37;;;5.77;;
3299;SDS011;1662;49.310;8.134;2023-04-25T11:35:08;6.77;;;6.07;;
3299;SDS011;1662;49.310;8.134;2023-04-25T11:37:34;6.50;;;6.00;;
3299;SDS011;1662;49.310;8.134;2023-04-25T11:40:10;6.97;;;6.40;;
3299;SDS011;1662;49.310;8.134;2023-04-25T11:42:37;7.00;;;6.30;;
3299;SDS011;1662;49.310;8.134;2023-04-25T11:45:04;6.47;;;5.83;;
3299;SDS011;1662;49.310;8.134;2023-04-25T11:47:30;8.00;;;6.37;;
3299;SDS011;1662;49.310;8.134;2023-04-25T11:50:00;7.40;;;6.00;;
3299;SDS011;1662;49.310;8.134;2023-04-25T11:52:43;5.53;;;5.07;;
3299;SDS011;1662;49.310;8.134;2023-04-25T11:55:15;7.23;;;5.60;;
3299;SDS011;1662;49.310;8.134;2023-04-25T11:57:43;7.70;;;5.27;;
3299;SDS011;1662;49.310;8.134;2023-04-25T12:02:42;11.10;;;7.60;;
3299;SDS011;1662;49.310;8.134;2023-04-25T12:05:09;5.57;;;5.17;;
3299;SDS011;1662;49.310;8.134;2023-04-25T12:07:36;5.23;;;4.93;;
3299;SDS011;1662;49.310;8.134;2023-04-25T12:10:06;11.40;;;4.33;;
3299;SDS011;1662;49.310;8.134;2023-04-25T12:12:33;6.03;;;4.60;;
3299;SDS011;1662;49.310;8.134;2023-04-25T12:17:40;7.80;;;5.90;;
3299;SDS011;1662;49.310;8.134;2023-04-25T12:20:07;5.87;;;5.27;;
3299;SDS011;1662;49.310;8.134;2023-04-25T12:22:34;5.77;;;4.90;;
3299;SDS011;1662;49.310;8.134;2023-04-25T12:25:01;4.77;;;4.33;;
3299;SDS011;1662;49.310;8.134;2023-04-25T12:27:30;5.27;;;4.87;;
3299;SDS011;1662;49.310;8.134;2023-04-25T12:29:56;8.20;;;5.03;;
3299;SDS011;1662;49.310;8.134;2023-04-25T12:32:22;6.70;;;4.47;;
3299;SDS011;1662;49.310;8.134;2023-04-25T12:34:48;8.80;;;5.30;;
3299;SDS011;1662;49.310;8.134;2023-04-25T12:37:13;6.07;;;5.63;;
3299;SDS011;1662;49.310;8.134;2023-04-25T12:39:39;5.03;;;4.73;;
3299;SDS011;1662;49.310;8.134;2023-04-25T12:42:05;6.50;;;5.10;;
3299;SDS011;1662;49.310;8.134;2023-04-25T12:44:32;4.57;;;4.27;;
3299;SDS011;1662;49.310;8.134;2023-04-25T12:46:59;4.30;;;4.00;;
3299;SDS011;1662;49.310;8.134;2023-04-25T12:49:25;5.03;;;4.73;;
3299;SDS011;1662;49.310;8.134;2023-04-25T12:51:50;5.70;;;5.20;;
3299;SDS011;1662;49.310;8.134;2023-04-25T12:54:16;4.40;;;4.10;;
3299;SDS011;1662;49.310;8.134;2023-04-25T12:56:42;5.20;;;4.70;;
3299;SDS011;1662;49.310;8.134;2023-04-25T12:59:08;5.57;;;4.20;;
3299;SDS011;1662;49.310;8.134;2023-04-25T13:01:38;4.80;;;4.40;;
3299;SDS011;1662;49.310;8.134;2023-04-25T13:04:04;4.90;;;4.50;;
3299;SDS011;1662;49.310;8.134;2023-04-25T13:06:29;5.37;;;5.07;;
3299;SDS011;1662;49.310;8.134;2023-04-25T13:08:55;6.43;;;5.17;;
3299;SDS011;1662;49.310;8.134;2023-04-25T13:11:21;6.00;;;5.60;;
3299;SDS011;1662;49.310;8.134;2023-04-25T13:13:47;5.07;;;4.77;;
3299;SDS011;1662;49.310;8.134;2023-04-25T13:16:14;5.80;;;5.40;;
3299;SDS011;1662;49.310;8.134;2023-04-25T13:18:40;6.20;;;5.70;;
3299;SDS011;1662;49.310;8.134;2023-04-25T13:21:06;8.10;;;6.40;;
3299;SDS011;1662;49.310;8.134;2023-04-25T13:23:32;7.07;;;6.23;;
3299;SDS011;1662;49.310;8.134;2023-04-25T13:25:57;7.27;;;6.03;;
3299;SDS011;1662;49.310;8.134;2023-04-25T13:28:26;8.80;;;6.90;;
3299;SDS011;1662;49.310;8.134;2023-04-25T13:30:52;7.47;;;6.17;;
3299;SDS011;1662;49.310;8.134;2023-04-25T13:33:20;7.33;;;6.67;;
3299;SDS011;1662;49.310;8.134;2023-04-25T13:35:47;6.57;;;5.90;;
3299;SDS011;1662;49.310;8.134;2023-04-25T13:38:21;6.37;;;5.87;;
3299;SDS011;1662;49.310;8.134;2023-04-25T13:40:47;7.20;;;5.03;;
3299;SDS011;1662;49.310;8.134;2023-04-25T13:43:13;6.20;;;5.60;;
3299;SDS011;1662;49.310;8.134;2023-04-25T13:45:42;6.17;;;5.67;;
3299;SDS011;1662;49.310;8.134;2023-04-25T13:48:08;6.00;;;5.50;;
3299;SDS011;1662;49.310;8.134;2023-04-25T13:50:34;4.97;;;4.27;;
3299;SDS011;1662;49.310;8.134;2023-04-25T13:53:00;7.27;;;4.43;;
3299;SDS011;1662;49.310;8.134;2023-04-25T13:55:26;4.47;;;4.10;;
3299;SDS011;1662;49.310;8.134;2023-04-25T13:57:51;4.70;;;4.50;;
3299;SDS011;1662;49.310;8.134;2023-04-25T14:00:17;5.17;;;4.70;;
3299;SDS011;1662;49.310;8.134;2023-04-25T14:02:43;5.43;;;4.93;;
3299;SDS011;1662;49.310;8.134;2023-04-25T14:05:09;5.07;;;4.57;;
3299;SDS011;1662;49.310;8.134;2023-04-25T14:07:34;4.10;;;3.90;;
3299;SDS011;1662;49.310;8.134;2023-04-25T14:10:00;5.40;;;4.40;;
3299;SDS011;1662;49.310;8.134;2023-04-25T14:12:26;4.90;;;4.47;;
3299;SDS011;1662;49.310;8.134;2023-04-25T14:14:52;5.07;;;4.70;;
3299;SDS011;1662;49.310;8.134;2023-04-25T14:17:20;5.07;;;4.77;;
3299;SDS011;1662;49.310;8.134;2023-04-25T14:19:46;6.17;;;5.57;;
3299;SDS011;1662;49.310;8.134;2023-04-25T14:22:13;6.40;;;5.80;;
3299;SDS011;1662;49.310;8.134;2023-04-25T14:24:40;6.23;;;5.73;;
3299;SDS011;1662;49.310;8.134;2023-04-25T14:27:08;5.27;;;4.87;;
3299;SDS011;1662;49.310;8.134;2023-04-25T14:29:34;7.90;;;7.10;;
3299;SDS011;1662;49.310;8.134;2023-04-25T14:32:02;6.20;;;5.70;;
3299;SDS011;1662;49.310;8.134;2023-04-25T14:34:30;13.27;;;6.87;;
3299;SDS011;1662;49.310;8.134;2023-04-25T14:36:58;8.80;;;7.27;;
3299;SDS011;1662;49.310;8.134;2023-04-25T14:39:23;9.93;;;6.07;;
3299;SDS011;1662;49.310;8.134;2023-04-25T14:41:49;8.93;;;6.40;;
3299;SDS011;1662;49.310;8.134;2023-04-25T14:44:17;6.53;;;5.90;;
3299;SDS011;1662;49.310;8.134;2023-04-25T14:46:42;7.47;;;6.43;;
3299;SDS011;1662;49.310;8.134;2023-04-25T14:49:08;9.30;;;6.43;;
3299;SDS011;1662;49.310;8.134;2023-04-25T14:51:36;6.60;;;6.10;;
3299;SDS011;1662;49.310;8.134;2023-04-25T14:54:02;7.57;;;6.50;;
3299;SDS011;1662;49.310;8.134;2023-04-25T14:56:29;6.70;;;5.60;;
3299;SDS011;1662;49.310;8.134;2023-04-25T14:58:55;7.20;;;5.93;;
3299;SDS011;1662;49.310;8.134;2023-04-25T15:01:21;6.50;;;5.70;;
3299;SDS011;1662;49.310;8.134;2023-04-25T15:03:47;5.07;;;4.63;;
3299;SDS011;1662;49.310;8.134;2023-04-25T15:06:13;5.10;;;4.70;;
3299;SDS011;1662;49.310;8.134;2023-04-25T15:08:39;5.53;;;5.00;;
3299;SDS011;1662;49.310;8.134;2023-04-25T15:11:04;6.83;;;5.60;;
3299;SDS011;1662;49.310;8.134;2023-04-25T15:13:32;5.27;;;4.87;;
3299;SDS011;1662;49.310;8.134;2023-04-25T15:15:59;8.77;;;4.87;;
3299;SDS011;1662;49.310;8.134;2023-04-25T15:18:25;6.17;;;5.77;;
3299;SDS011;1662;49.310;8.134;2023-04-25T15:20:51;6.87;;;6.23;;